Time,TemperatureF,DewpointF,PressureIn,WindDirection,WindDirectionDegrees,WindSpeedMPH,WindSpeedGustMPH,Humidity,HourlyPrecipIn,Conditions,Clouds,dailyrainin,SoftwareType,DateUTC
2013-02-25 00:00:00,48.1,46.5,29.99,West,259,0.0,0.0,94,0.00,,,0.01,Wunderground v.1.15,2013-02-25 05:00:00,
2013-02-25 00:05:00,47.9,46.3,29.99,West,259,0.0,0.0,94,0.00,,,0.00,Wunderground v.1.15,2013-02-25 05:05:00,
2013-02-25 00:15:00,47.7,46.1,29.99,West,259,0.0,0.0,94,0.00,,,0.00,Wunderground v.1.15,2013-02-25 05:15:00,
2013-02-25 00:25:00,47.5,46.1,29.99,West,259,0.0,0.0,95,0.00,,,0.00,Wunderground v.1.15,2013-02-25 05:25:00,
2013-02-25 00:35:00,47.4,45.8,29.99,West,259,0.0,0.0,94,0.00,,,0.00,Wunderground v.1.15,2013-02-25 05:35:00,
2013-02-25 00:45:00,47.2,45.8,29.99,West,259,0.0,0.0,95,0.00,,,0.00,Wunderground v.1.15,2013-02-25 05:45:00,
2013-02-25 00:55:00,47.1,45.7,29.99,West,259,0.0,0.0,95,0.00,,,0.00,Wunderground v.1.15,2013-02-25 05:55:00,
2013-02-25 01:05:00,46.7,45.1,29.99,WSW,238,0.0,0.0,94,0.00,,,0.00,Wunderground v.1.15,2013-02-25 06:05:00,
2013-02-25 01:15:00,46.5,44.9,29.99,WSW,238,0.0,0.0,94,0.00,,,0.00,Wunderground v.1.15,2013-02-25 06:15:00,
2013-02-25 01:25:00,46.5,45.1,29.99,WSW,238,0.0,0.0,95,0.00,,,0.00,Wunderground v.1.15,2013-02-25 06:25:00,
2013-02-25 01:35:00,46.5,45.1,29.98,WSW,238,0.0,0.0,95,0.00,,,0.00,Wunderground v.1.15,2013-02-25 06:35:00,
2013-02-25 01:45:00,46.4,45.0,29.98,WSW,238,0.0,0.0,95,0.00,,,0.00,Wunderground v.1.15,2013-02-25 06:45:00,
2013-02-25 01:50:00,46.3,44.9,29.98,WSW,238,0.0,0.0,95,0.00,,,0.00,Wunderground v.1.15,2013-02-25 06:50:00,
2013-02-25 01:55:00,46.4,45.0,29.98,WSW,238,0.0,0.0,95,0.00,,,0.00,Wunderground v.1.15,2013-02-25 06:55:00,
2013-02-25 02:05:00,46.3,44.9,29.97,WSW,238,0.0,0.0,95,0.00,,,0.00,Wunderground v.1.15,2013-02-25 07:05:00,
2013-02-25 02:15:00,46.1,44.7,29.98,WSW,238,0.0,0.0,95,0.00,,,0.00,Wunderground v.1.15,2013-02-25 07:15:00,
2013-02-25 02:25:00,45.7,44.4,29.97,WSW,238,0.0,0.0,95,0.00,,,0.00,Wunderground v.1.15,2013-02-25 07:25:00,
2013-02-25 02:35:00,45.7,44.4,29.97,WSW,238,0.0,0.0,95,0.00,,,0.00,Wunderground v.1.15,2013-02-25 07:35:00,
2013-02-25 02:45:00,45.5,44.2,29.97,WSW,238,0.0,0.0,95,0.00,,,0.00,Wunderground v.1.15,2013-02-25 07:45:00,
2013-02-25 02:50:00,45.5,44.2,29.97,WSW,238,0.0,0.0,95,0.00,,,0.00,Wunderground v.1.15,2013-02-25 07:50:00,
2013-02-25 03:00:00,45.5,44.2,29.97,WSW,238,0.0,0.0,95,0.00,,,0.00,Wunderground v.1.15,2013-02-25 08:00:00,
2013-02-25 03:10:00,45.5,44.2,29.96,WSW,238,0.0,0.0,95,0.00,,,0.00,Wunderground v.1.15,2013-02-25 08:10:00,
2013-02-25 03:15:00,45.5,44.2,29.96,WSW,238,0.0,0.0,95,0.00,,,0.00,Wunderground v.1.15,2013-02-25 08:15:00,
2013-02-25 03:25:00,45.4,44.1,29.97,WSW,238,0.0,0.0,95,0.00,,,0.00,Wunderground v.1.15,2013-02-25 08:25:00,
2013-02-25 03:35:00,45.2,43.9,29.98,NE,38,0.0,0.0,95,0.00,,,0.00,Wunderground v.1.15,2013-02-25 08:35:00,
2013-02-25 03:45:00,46.9,45.8,29.98,NNE,31,2.0,2.0,96,0.00,,,0.00,Wunderground v.1.15,2013-02-25 08:45:00,
2013-02-25 03:55:00,47.5,46.1,29.98,NE,34,0.0,1.0,95,0.00,,,0.00,Wunderground v.1.15,2013-02-25 08:55:00,
2013-02-25 04:00:00,47.7,46.3,29.98,NE,38,0.0,0.0,95,0.00,,,0.00,Wunderground v.1.15,2013-02-25 09:00:00,
2013-02-25 04:10:00,48.0,46.1,29.98,NE,53,1.0,10.0,93,0.00,,,0.00,Wunderground v.1.15,2013-02-25 09:10:00,
2013-02-25 04:15:00,48.6,45.8,29.98,NE,46,5.0,10.0,90,0.00,,,0.00,Wunderground v.1.15,2013-02-25 09:15:00,
2013-02-25 04:25:00,49.3,44.0,29.98,NE,42,2.0,10.0,82,0.00,,,0.00,Wunderground v.1.15,2013-02-25 09:25:00,
2013-02-25 04:35:00,49.4,42.1,29.97,NNE,32,7.0,8.0,76,0.00,,,0.00,Wunderground v.1.15,2013-02-25 09:35:00,
2013-02-25 04:45:00,49.1,41.2,29.97,NE,45,5.0,7.0,74,0.00,,,0.00,Wunderground v.1.15,2013-02-25 09:45:00,
2013-02-25 04:55:00,49.0,39.3,29.98,North,360,4.0,6.0,69,0.00,,,0.00,Wunderground v.1.15,2013-02-25 09:55:00,
2013-02-25 05:00:00,49.1,38.6,30.00,SE,127,3.0,3.0,67,0.00,,,0.00,Wunderground v.1.15,2013-02-25 10:00:00,
2013-02-25 05:10:00,49.0,38.1,30.01,NE,35,1.0,1.0,66,0.00,,,0.00,Wunderground v.1.15,2013-02-25 10:10:00,
2013-02-25 05:15:00,49.0,37.7,30.01,NE,53,0.0,1.0,65,0.00,,,0.00,Wunderground v.1.15,2013-02-25 10:15:00,
2013-02-25 05:25:00,49.2,36.7,30.01,NE,35,1.0,1.0,62,0.00,,,0.00,Wunderground v.1.15,2013-02-25 10:25:00,
2013-02-25 05:30:00,49.2,36.3,30.01,NE,34,1.0,1.0,61,0.00,,,0.00,Wunderground v.1.15,2013-02-25 10:30:00,
2013-02-25 05:35:00,49.2,35.9,30.01,NE,54,1.0,1.0,60,0.00,,,0.00,Wunderground v.1.15,2013-02-25 10:35:00,
2013-02-25 05:45:00,48.9,36.0,30.01,ENE,76,0.0,1.0,61,0.00,,,0.00,Wunderground v.1.15,2013-02-25 10:45:00,
2013-02-25 05:55:00,48.6,36.2,30.01,East,87,2.0,7.0,62,0.00,,,0.00,Wunderground v.1.15,2013-02-25 10:55:00,
2013-02-25 06:05:00,48.3,37.1,30.01,East,83,1.0,2.0,65,0.00,,,0.00,Wunderground v.1.15,2013-02-25 11:05:00,
2013-02-25 06:15:00,47.9,37.1,30.01,NE,55,0.0,6.0,66,0.00,,,0.00,Wunderground v.1.15,2013-02-25 11:15:00,
2013-02-25 06:20:00,47.7,37.3,30.02,NNE,26,1.0,1.0,67,0.00,,,0.00,Wunderground v.1.15,2013-02-25 11:20:00,
2013-02-25 06:30:00,47.3,37.3,30.02,ESE,103,2.0,2.0,68,0.00,,,0.00,Wunderground v.1.15,2013-02-25 11:30:00,
2013-02-25 06:35:00,47.1,37.8,30.02,NNE,31,2.0,2.0,70,0.00,,,0.00,Wunderground v.1.15,2013-02-25 11:35:00,
2013-02-25 06:45:00,46.7,37.8,30.03,ENE,69,1.0,10.0,71,0.00,,,0.00,Wunderground v.1.15,2013-02-25 11:45:00,
2013-02-25 06:55:00,46.3,37.8,30.04,NE,53,2.0,2.0,72,0.00,,,0.00,Wunderground v.1.15,2013-02-25 11:55:00,
2013-02-25 07:00:00,46.0,38.2,30.05,ESE,108,2.0,2.0,74,0.00,,,0.00,Wunderground v.1.15,2013-02-25 12:00:00,
2013-02-25 07:10:00,45.7,38.2,30.06,NNE,13,3.0,3.0,75,0.00,,,0.00,Wunderground v.1.15,2013-02-25 12:10:00,
2013-02-25 07:20:00,45.5,39.0,30.07,SW,223,2.0,2.0,78,0.00,,,0.00,Wunderground v.1.15,2013-02-25 12:20:00,
2013-02-25 07:25:00,45.4,39.3,30.07,WNW,286,2.0,2.0,79,0.00,,,0.00,Wunderground v.1.15,2013-02-25 12:25:00,
2013-02-25 07:35:00,45.1,39.6,30.08,WNW,289,2.0,2.0,81,0.00,,,0.00,Wunderground v.1.15,2013-02-25 12:35:00,
2013-02-25 07:40:00,44.9,39.7,30.08,NNE,24,2.0,3.0,82,0.00,,,0.00,Wunderground v.1.15,2013-02-25 12:40:00,
2013-02-25 07:50:00,44.7,39.9,30.08,ENE,70,2.0,10.0,83,0.00,,,0.00,Wunderground v.1.15,2013-02-25 12:50:00,
2013-02-25 07:55:00,44.8,40.6,30.09,ESE,110,2.0,10.0,85,0.00,,,0.00,Wunderground v.1.15,2013-02-25 12:55:00,
2013-02-25 08:00:00,44.6,40.7,30.09,West,265,4.0,4.0,86,0.00,,,0.00,Wunderground v.1.15,2013-02-25 13:00:00,
2013-02-25 08:10:00,44.4,40.8,30.09,East,83,2.0,3.0,87,0.00,,,0.00,Wunderground v.1.15,2013-02-25 13:10:00,
2013-02-25 08:20:00,44.5,41.5,30.09,East,94,4.0,4.0,89,0.00,,,0.00,Wunderground v.1.15,2013-02-25 13:20:00,
2013-02-25 08:30:00,44.4,41.4,30.10,North,355,4.0,5.0,89,0.00,,,0.00,Wunderground v.1.15,2013-02-25 13:30:00,
2013-02-25 08:40:00,44.4,41.7,30.09,WSW,250,3.0,3.0,90,0.00,,,0.00,Wunderground v.1.15,2013-02-25 13:40:00,
2013-02-25 08:45:00,44.5,41.7,30.09,East,90,3.0,3.0,90,0.00,,,0.00,Wunderground v.1.15,2013-02-25 13:45:00,
2013-02-25 08:55:00,44.2,41.5,30.10,NE,34,3.0,8.0,90,0.00,,,0.00,Wunderground v.1.15,2013-02-25 13:55:00,
2013-02-25 09:10:00,44.2,41.5,30.11,NNE,28,2.0,3.0,90,0.00,,,0.00,Wunderground v.1.15,2013-02-25 14:10:00,
2013-02-25 09:20:00,44.5,41.5,30.11,NE,43,2.0,2.0,89,0.00,,,0.00,Wunderground v.1.15,2013-02-25 14:20:00,
2013-02-25 09:30:00,44.6,41.6,30.12,East,90,3.0,6.0,89,0.00,,,0.00,Wunderground v.1.15,2013-02-25 14:30:00,
2013-02-25 09:35:00,44.5,41.2,30.12,North,360,2.0,6.0,88,0.00,,,0.00,Wunderground v.1.15,2013-02-25 14:35:00,
2013-02-25 09:45:00,44.4,41.1,30.13,ENE,60,2.0,7.0,88,0.00,,,0.00,Wunderground v.1.15,2013-02-25 14:45:00,
2013-02-25 09:55:00,44.3,40.7,30.13,NE,55,3.0,5.0,87,0.00,,,0.00,Wunderground v.1.15,2013-02-25 14:55:00,
2013-02-25 10:05:00,44.2,40.6,30.13,NNE,23,2.0,8.0,87,0.00,,,0.00,Wunderground v.1.15,2013-02-25 15:05:00,
2013-02-25 10:10:00,44.2,40.3,30.13,NE,47,3.0,3.0,86,0.00,,,0.00,Wunderground v.1.15,2013-02-25 15:10:00,
2013-02-25 10:20:00,44.2,40.3,30.13,NE,36,3.0,3.0,86,0.00,,,0.00,Wunderground v.1.15,2013-02-25 15:20:00,
2013-02-25 10:25:00,44.1,39.9,30.13,ENE,62,5.0,5.0,85,0.00,,,0.00,Wunderground v.1.15,2013-02-25 15:25:00,
2013-02-25 10:35:00,44.4,40.2,30.13,NE,38,3.0,12.0,85,0.00,,,0.00,Wunderground v.1.15,2013-02-25 15:35:00,
2013-02-25 10:45:00,44.3,39.8,30.12,NNE,29,3.0,6.0,84,0.00,,,0.00,Wunderground v.1.15,2013-02-25 15:45:00,
2013-02-25 10:50:00,44.5,40.0,30.12,North,11,3.0,4.0,84,0.00,,,0.00,Wunderground v.1.15,2013-02-25 15:50:00,
2013-02-25 11:00:00,44.2,39.1,30.12,East,83,5.0,7.0,82,0.00,,,0.00,Wunderground v.1.15,2013-02-25 16:00:00,
2013-02-25 11:10:00,44.1,38.6,30.12,East,98,5.0,5.0,81,0.00,,,0.00,Wunderground v.1.15,2013-02-25 16:10:00,
2013-02-25 11:20:00,44.0,37.9,30.12,ENE,76,2.0,3.0,79,0.00,,,0.00,Wunderground v.1.15,2013-02-25 16:20:00,
2013-02-25 11:30:00,44.0,37.6,30.12,NE,34,4.0,10.0,78,0.00,,,0.00,Wunderground v.1.15,2013-02-25 16:30:00,
2013-02-25 11:35:00,44.1,38.0,30.11,NNE,17,4.0,10.0,79,0.00,,,0.00,Wunderground v.1.15,2013-02-25 16:35:00,
2013-02-25 11:45:00,44.2,37.4,30.11,NW,314,2.0,2.0,77,0.00,,,0.00,Wunderground v.1.15,2013-02-25 16:45:00,
2013-02-25 11:55:00,44.3,37.2,30.11,ENE,76,0.0,2.0,76,0.00,,,0.00,Wunderground v.1.15,2013-02-25 16:55:00,
2013-02-25 12:05:00,44.4,37.3,30.11,NNE,15,2.0,2.0,76,0.00,,,0.00,Wunderground v.1.15,2013-02-25 17:05:00,
2013-02-25 12:15:00,44.5,37.1,30.11,East,80,1.0,1.0,75,0.00,,,0.00,Wunderground v.1.15,2013-02-25 17:15:00,
2013-02-25 12:25:00,44.6,36.8,30.11,ENE,60,1.0,12.0,74,0.00,,,0.00,Wunderground v.1.15,2013-02-25 17:25:00,
2013-02-25 12:35:00,44.6,36.5,30.11,NE,38,1.0,1.0,73,0.00,,,0.00,Wunderground v.1.15,2013-02-25 17:35:00,
2013-02-25 12:45:00,44.6,36.1,30.10,NE,47,1.0,1.0,72,0.00,,,0.00,Wunderground v.1.15,2013-02-25 17:45:00,
2013-02-25 12:55:00,44.8,36.7,30.10,ENE,67,3.0,7.0,73,0.00,,,0.00,Wunderground v.1.15,2013-02-25 17:55:00,
2013-02-25 13:05:00,45.1,37.6,30.09,NE,44,0.0,2.0,75,0.00,,,0.00,Wunderground v.1.15,2013-02-25 18:05:00,
2013-02-25 13:10:00,45.0,36.9,30.09,ENE,69,0.0,0.0,73,0.00,,,0.00,Wunderground v.1.15,2013-02-25 18:10:00,
2013-02-25 13:20:00,45.1,37.3,30.07,North,9,5.0,5.0,74,0.00,,,0.00,Wunderground v.1.15,2013-02-25 18:20:00,
2013-02-25 13:25:00,45.1,37.3,30.07,NNE,17,4.0,5.0,74,0.00,,,0.00,Wunderground v.1.15,2013-02-25 18:25:00,
2013-02-25 13:30:00,45.1,37.3,30.07,NE,36,4.0,8.0,74,0.00,,,0.00,Wunderground v.1.15,2013-02-25 18:30:00,
2013-02-25 13:35:00,45.2,37.4,30.08,ENE,74,3.0,8.0,74,0.00,,,0.00,Wunderground v.1.15,2013-02-25 18:35:00,
2013-02-25 13:45:00,45.3,37.5,30.07,NE,42,0.0,4.0,74,0.00,,,0.00,Wunderground v.1.15,2013-02-25 18:45:00,
2013-02-25 13:50:00,45.4,37.6,30.07,ENE,69,1.0,2.0,74,0.00,,,0.00,Wunderground v.1.15,2013-02-25 18:50:00,
2013-02-25 14:00:00,45.4,37.9,30.08,NE,36,2.0,5.0,75,0.00,,,0.00,Wunderground v.1.15,2013-02-25 19:00:00,
2013-02-25 14:05:00,45.5,38.0,30.07,ENE,72,2.0,7.0,75,0.00,,,0.00,Wunderground v.1.15,2013-02-25 19:05:00,
2013-02-25 14:15:00,45.5,38.0,30.07,ENE,65,4.0,14.0,75,0.00,,,0.00,Wunderground v.1.15,2013-02-25 19:15:00,
2013-02-25 14:20:00,45.5,38.0,30.07,ENE,69,7.0,7.0,75,0.00,,,0.00,Wunderground v.1.15,2013-02-25 19:20:00,
2013-02-25 14:30:00,45.6,37.8,30.07,NNE,16,3.0,3.0,74,0.00,,,0.00,Wunderground v.1.15,2013-02-25 19:30:00,
2013-02-25 14:40:00,45.8,38.0,30.08,North,5,1.0,1.0,74,0.00,,,0.00,Wunderground v.1.15,2013-02-25 19:40:00,
2013-02-25 14:50:00,45.9,38.1,30.08,ENE,75,1.0,1.0,74,0.00,,,0.00,Wunderground v.1.15,2013-02-25 19:50:00,
2013-02-25 15:00:00,46.0,38.2,30.08,ENE,73,0.0,0.0,74,0.00,,,0.00,Wunderground v.1.15,2013-02-25 20:00:00,
2013-02-25 15:10:00,46.1,37.9,30.08,ENE,62,0.0,0.0,73,0.00,,,0.00,Wunderground v.1.15,2013-02-25 20:10:00,
2013-02-25 15:20:00,45.9,37.0,30.08,NE,49,0.0,0.0,71,0.00,,,0.00,Wunderground v.1.15,2013-02-25 20:20:00,
2013-02-25 15:25:00,45.9,37.0,30.09,NNE,13,0.0,0.0,71,0.00,,,0.00,Wunderground v.1.15,2013-02-25 20:25:00,
2013-02-25 15:30:00,45.9,37.4,30.08,NE,49,0.0,0.0,72,0.00,,,0.00,Wunderground v.1.15,2013-02-25 20:30:00,
2013-02-25 15:40:00,45.9,37.4,30.08,ENE,69,0.0,0.0,72,0.00,,,0.00,Wunderground v.1.15,2013-02-25 20:40:00,
2013-02-25 15:50:00,45.7,36.5,30.07,NE,42,1.0,1.0,70,0.00,,,0.00,Wunderground v.1.15,2013-02-25 20:50:00,
2013-02-25 16:00:00,45.8,37.3,30.07,NE,51,0.0,9.0,72,0.00,,,0.00,Wunderground v.1.15,2013-02-25 21:00:00,
2013-02-25 16:05:00,45.7,37.2,30.07,ENE,61,2.0,9.0,72,0.00,,,0.00,Wunderground v.1.15,2013-02-25 21:05:00,
2013-02-25 16:15:00,45.6,37.1,30.06,NNW,327,2.0,3.0,72,0.00,,,0.00,Wunderground v.1.15,2013-02-25 21:15:00,
2013-02-25 16:20:00,45.7,37.5,30.06,ENE,71,3.0,8.0,73,0.00,,,0.00,Wunderground v.1.15,2013-02-25 21:20:00,
2013-02-25 16:25:00,45.6,37.4,30.06,ENE,78,4.0,8.0,73,0.00,,,0.00,Wunderground v.1.15,2013-02-25 21:25:00,
2013-02-25 16:35:00,45.7,37.5,30.06,ENE,74,6.0,7.0,73,0.00,,,0.00,Wunderground v.1.15,2013-02-25 21:35:00,
2013-02-25 16:40:00,45.6,37.8,30.05,North,9,7.0,8.0,74,0.00,,,0.00,Wunderground v.1.15,2013-02-25 21:40:00,
2013-02-25 16:45:00,45.6,37.4,30.06,ENE,66,9.0,12.0,73,0.00,,,0.00,Wunderground v.1.15,2013-02-25 21:45:00,
2013-02-25 16:55:00,45.5,37.7,30.07,East,82,10.0,11.0,74,0.00,,,0.00,Wunderground v.1.15,2013-02-25 21:55:00,
2013-02-25 17:05:00,45.6,38.5,30.07,ENE,78,10.0,13.0,76,0.00,,,0.00,Wunderground v.1.15,2013-02-25 22:05:00,
2013-02-25 17:10:00,45.6,38.5,30.06,SE,144,8.0,11.0,76,0.00,,,0.00,Wunderground v.1.15,2013-02-25 22:10:00,
2013-02-25 17:15:00,45.7,38.9,30.06,East,85,9.0,11.0,77,0.00,,,0.00,Wunderground v.1.15,2013-02-25 22:15:00,
2013-02-25 17:25:00,46.0,39.2,30.05,East,81,10.0,10.0,77,0.00,,,0.00,Wunderground v.1.15,2013-02-25 22:25:00,
2013-02-25 17:35:00,46.2,39.1,30.05,ESE,106,10.0,12.0,76,0.00,,,0.00,Wunderground v.1.15,2013-02-25 22:35:00,
2013-02-25 17:45:00,46.5,39.0,30.04,East,98,12.0,14.0,75,0.00,,,0.00,Wunderground v.1.15,2013-02-25 22:45:00,
2013-02-25 17:55:00,46.8,39.3,30.03,East,100,13.0,20.0,75,0.00,,,0.00,Wunderground v.1.15,2013-02-25 22:55:00,
2013-02-25 18:05:00,47.0,39.8,30.05,ENE,78,12.0,13.0,76,0.00,,,0.00,Wunderground v.1.15,2013-02-25 23:05:00,
2013-02-25 18:10:00,47.1,39.6,30.05,East,92,12.0,13.0,75,0.00,,,0.00,Wunderground v.1.15,2013-02-25 23:10:00,
2013-02-25 18:20:00,47.3,40.1,30.05,East,98,13.0,13.0,76,0.00,,,0.00,Wunderground v.1.15,2013-02-25 23:20:00,
2013-02-25 18:30:00,47.4,40.2,30.05,NE,56,13.0,15.0,76,0.00,,,0.00,Wunderground v.1.15,2013-02-25 23:30:00,
2013-02-25 18:35:00,47.5,40.6,30.05,East,87,14.0,15.0,77,0.00,,,0.00,Wunderground v.1.15,2013-02-25 23:35:00,
2013-02-25 18:45:00,47.5,40.6,30.07,East,80,10.0,13.0,77,0.00,,,0.00,Wunderground v.1.15,2013-02-25 23:45:00,
2013-02-25 18:55:00,47.6,41.1,30.06,East,80,8.0,10.0,78,0.00,,,0.00,Wunderground v.1.15,2013-02-25 23:55:00,
2013-02-25 19:00:00,47.7,41.2,30.06,NE,51,9.0,9.0,78,0.00,,,0.00,Wunderground v.1.15,2013-02-26 00:00:00,
2013-02-25 19:10:00,47.7,41.5,30.05,SE,128,5.0,7.0,79,0.00,,,0.00,Wunderground v.1.15,2013-02-26 00:10:00,
2013-02-25 19:15:00,47.6,41.4,30.06,ESE,122,4.0,7.0,79,0.00,,,0.00,Wunderground v.1.15,2013-02-26 00:15:00,
2013-02-25 19:25:00,47.2,39.7,30.09,North,9,8.0,8.0,75,0.00,,,0.00,Wunderground v.1.15,2013-02-26 00:25:00,
2013-02-25 19:35:00,45.6,36.7,30.08,North,9,7.0,7.0,71,0.00,,,0.00,Wunderground v.1.15,2013-02-26 00:35:00,
2013-02-25 19:40:00,45.1,36.3,30.08,NNE,29,7.0,7.0,71,0.00,,,0.00,Wunderground v.1.15,2013-02-26 00:40:00,
2013-02-25 19:50:00,44.7,35.9,30.09,NNE,21,7.0,7.0,71,0.00,,,0.00,Wunderground v.1.15,2013-02-26 00:50:00,
2013-02-25 19:55:00,44.7,35.9,30.09,NE,34,6.0,7.0,71,0.00,,,0.00,Wunderground v.1.15,2013-02-26 00:55:00,
2013-02-25 20:00:00,44.7,35.9,30.09,NNE,16,6.0,6.0,71,0.00,,,0.00,Wunderground v.1.15,2013-02-26 01:00:00,
2013-02-25 20:10:00,44.8,36.0,30.08,North,5,5.0,5.0,71,0.00,,,0.00,Wunderground v.1.15,2013-02-26 01:10:00,
2013-02-25 20:20:00,45.1,36.6,30.06,NNE,13,5.0,5.0,72,0.00,,,0.00,Wunderground v.1.15,2013-02-26 01:20:00,
2013-02-25 20:30:00,45.2,36.7,30.06,East,86,6.0,7.0,72,0.00,,,0.00,Wunderground v.1.15,2013-02-26 01:30:00,
2013-02-25 20:40:00,45.1,36.6,30.06,East,85,7.0,7.0,72,0.00,,,0.00,Wunderground v.1.15,2013-02-26 01:40:00,
2013-02-25 20:50:00,45.1,36.6,30.06,NNE,32,6.0,9.0,72,0.00,,,0.00,Wunderground v.1.15,2013-02-26 01:50:00,
2013-02-25 21:00:00,45.1,37.0,30.04,ENE,59,6.0,6.0,73,0.00,,,0.00,Wunderground v.1.15,2013-02-26 02:00:00,
2013-02-25 21:10:00,45.8,38.7,30.04,WNW,301,4.0,4.0,76,0.00,,,0.00,Wunderground v.1.15,2013-02-26 02:10:00,
2013-02-25 21:20:00,46.1,39.3,30.05,NE,44,5.0,12.0,77,0.00,,,0.00,Wunderground v.1.15,2013-02-26 02:20:00,
2013-02-25 21:30:00,46.4,39.9,30.05,NNW,327,5.0,5.0,78,0.00,,,0.00,Wunderground v.1.15,2013-02-26 02:30:00,
2013-02-25 21:35:00,46.6,40.4,30.04,ENE,70,4.0,5.0,79,0.00,,,0.00,Wunderground v.1.15,2013-02-26 02:35:00,
2013-02-25 21:45:00,46.7,40.5,30.04,East,84,4.0,7.0,79,0.00,,,0.00,Wunderground v.1.15,2013-02-26 02:45:00,
2013-02-25 21:50:00,46.7,40.5,30.04,ENE,74,4.0,5.0,79,0.00,,,0.00,Wunderground v.1.15,2013-02-26 02:50:00,
2013-02-25 22:00:00,46.8,40.6,30.03,East,83,5.0,9.0,79,0.00,,,0.00,Wunderground v.1.15,2013-02-26 03:00:00,
2013-02-25 22:05:00,47.0,41.5,30.02,SE,130,6.0,9.0,81,0.00,,,0.00,Wunderground v.1.15,2013-02-26 03:05:00,
2013-02-25 22:15:00,47.2,42.0,30.02,NE,50,7.0,7.0,82,0.00,,,0.00,Wunderground v.1.15,2013-02-26 03:15:00,
2013-02-25 22:20:00,47.3,42.1,30.02,NE,44,7.0,7.0,82,0.00,,,0.00,Wunderground v.1.15,2013-02-26 03:20:00,
2013-02-25 22:25:00,47.5,42.3,30.02,NE,44,7.0,7.0,82,0.00,,,0.00,Wunderground v.1.15,2013-02-26 03:25:00,
2013-02-25 22:35:00,47.6,42.7,30.02,South,190,7.0,7.0,83,0.00,,,0.00,Wunderground v.1.15,2013-02-26 03:35:00,
2013-02-25 22:40:00,47.5,42.9,30.02,ENE,71,6.0,10.0,84,0.00,,,0.00,Wunderground v.1.15,2013-02-26 03:40:00,
2013-02-25 22:50:00,46.8,42.8,30.03,NW,318,4.0,4.0,86,0.00,,,0.00,Wunderground v.1.15,2013-02-26 03:50:00,
2013-02-25 23:00:00,46.6,43.5,30.03,East,92,4.0,5.0,89,0.00,,,0.00,Wunderground v.1.15,2013-02-26 04:00:00,
2013-02-25 23:05:00,46.5,43.7,30.03,ENE,59,6.0,8.0,90,0.00,,,0.00,Wunderground v.1.15,2013-02-26 04:05:00,
2013-02-25 23:15:00,46.1,43.6,30.03,NNE,19,3.0,6.0,91,0.00,,,0.00,Wunderground v.1.15,2013-02-26 04:15:00,
2013-02-25 23:25:00,45.5,43.3,30.02,East,99,2.0,2.0,92,0.00,,,0.01,Wunderground v.1.15,2013-02-26 04:25:00,
2013-02-25 23:30:00,45.3,43.1,30.02,ESE,102,2.0,2.0,92,0.00,,,0.01,Wunderground v.1.15,2013-02-26 04:30:00,
2013-02-25 23:35:00,45.2,43.0,30.02,NE,36,3.0,3.0,92,0.00,,,0.01,Wunderground v.1.15,2013-02-26 04:35:00,
2013-02-25 23:45:00,45.1,43.2,30.02,ESE,122,1.0,1.0,93,0.00,,,0.02,Wunderground v.1.15,2013-02-26 04:45:00,
2013-02-25 23:55:00,44.9,43.0,30.02,NW,321,2.0,5.0,93,0.00,,,0.02,Wunderground v.1.15,2013-02-26 04:55:00,